createdAt,value
2019-01-29T00:01:36.184Z,-5.68
2019-01-29T00:05:37.766Z,-5.68
2019-01-29T00:09:39.067Z,-5.68
2019-01-29T00:13:40.371Z,-5.67
2019-01-29T00:17:41.662Z,-5.67
2019-01-29T00:21:43.229Z,-5.67
2019-01-29T00:25:44.683Z,-5.66
2019-01-29T00:29:46.060Z,-5.66
2019-01-29T00:33:47.550Z,-5.65
2019-01-29T00:37:49.396Z,-5.64
2019-01-29T00:41:51.740Z,-5.63
2019-01-29T00:45:53.123Z,-5.61
2019-01-29T00:49:54.759Z,-5.61
2019-01-29T00:53:56.079Z,-5.61
2019-01-29T00:57:57.371Z,-5.60
2019-01-29T01:01:58.787Z,-5.62
2019-01-29T01:06:00.103Z,-5.60
2019-01-29T01:10:01.355Z,-5.61
2019-01-29T01:14:02.727Z,-5.60
2019-01-29T01:18:04.137Z,-5.62
2019-01-29T01:22:05.541Z,-5.62
2019-01-29T01:26:06.889Z,-5.59
2019-01-29T01:30:09.975Z,-5.59
2019-01-29T01:34:11.283Z,-5.57
2019-01-29T01:38:12.824Z,-5.58
2019-01-29T01:42:14.209Z,-5.57
2019-01-29T01:46:15.510Z,-5.55
2019-01-29T01:50:16.952Z,-5.57
2019-01-29T01:54:18.457Z,-5.56
2019-01-29T01:58:19.720Z,-5.56
2019-01-29T02:02:21.055Z,-5.55
2019-01-29T02:06:22.321Z,-5.56
2019-01-29T02:10:29.876Z,-5.55
2019-01-29T02:14:31.248Z,-5.54
2019-01-29T02:18:32.762Z,-5.53
2019-01-29T02:22:34.198Z,-5.52
2019-01-29T02:26:35.818Z,-5.52
2019-01-29T02:30:40.484Z,-5.50
2019-01-29T02:34:41.968Z,-5.49
2019-01-29T02:38:44.522Z,-5.48
2019-01-29T02:42:46.262Z,-5.47
2019-01-29T02:46:47.652Z,-5.47
2019-01-29T02:50:48.960Z,-5.48
2019-01-29T02:54:50.192Z,-5.47
2019-01-29T02:58:51.447Z,-5.46
2019-01-29T03:02:52.778Z,-5.46
2019-01-29T03:06:54.182Z,-5.46
2019-01-29T03:10:55.500Z,-5.46
2019-01-29T03:14:57.092Z,-5.45
2019-01-29T03:18:58.535Z,-5.43
2019-01-29T03:22:59.933Z,-5.43
2019-01-29T03:27:01.459Z,-5.42
2019-01-29T03:31:02.942Z,-5.42
2019-01-29T03:35:04.214Z,-5.42
2019-01-29T03:39:07.906Z,-5.40
2019-01-29T03:43:09.204Z,-5.43
2019-01-29T03:47:10.731Z,-5.44
2019-01-29T03:51:12.139Z,-5.46
2019-01-29T03:55:13.589Z,-5.44
2019-01-29T03:59:15.027Z,-5.43
2019-01-29T04:03:16.334Z,-5.43
2019-01-29T04:07:17.696Z,-5.41
2019-01-29T04:11:19.041Z,-5.41
2019-01-29T04:15:21.182Z,-5.41
2019-01-29T04:19:23.690Z,-5.42
2019-01-29T04:23:25.029Z,-5.42
2019-01-29T04:27:26.515Z,-5.41
2019-01-29T04:31:27.846Z,-5.42
2019-01-29T04:35:29.220Z,-5.43
2019-01-29T04:39:30.476Z,-5.43
2019-01-29T04:43:32.117Z,-5.45
2019-01-29T04:47:33.380Z,-5.45
2019-01-29T04:51:34.685Z,-5.44
2019-01-29T04:55:36.244Z,-5.42
2019-01-29T04:59:37.561Z,-5.44
2019-01-29T05:03:38.910Z,-5.46
2019-01-29T05:07:40.835Z,-5.46
2019-01-29T05:11:42.145Z,-5.47
2019-01-29T05:15:43.553Z,-5.46
2019-01-29T05:19:45.060Z,-5.45
2019-01-29T05:23:46.465Z,-5.45
2019-01-29T05:27:47.804Z,-5.44
2019-01-29T05:31:49.403Z,-5.44
2019-01-29T05:35:50.595Z,-5.43
2019-01-29T05:39:51.906Z,-5.42
2019-01-29T05:43:53.107Z,-5.42
2019-01-29T05:47:56.512Z,-5.41
2019-01-29T05:51:57.848Z,-5.42
2019-01-29T05:55:59.300Z,-5.41
2019-01-29T06:00:00.752Z,-5.39
2019-01-29T06:04:02.086Z,-5.38
2019-01-29T06:08:05.119Z,-5.38
2019-01-29T06:12:06.487Z,-5.40
2019-01-29T06:16:07.911Z,-5.41
2019-01-29T06:20:12.194Z,-5.42
2019-01-29T06:24:13.362Z,-5.45
2019-01-29T06:28:14.898Z,-5.46
2019-01-29T06:32:16.303Z,-5.47
2019-01-29T06:36:17.612Z,-5.46
2019-01-29T06:40:20.787Z,-5.46
2019-01-29T06:44:22.162Z,-5.49
2019-01-29T06:48:23.782Z,-5.50
2019-01-29T06:52:25.283Z,-5.50
2019-01-29T06:56:26.727Z,-5.50
2019-01-29T07:00:30.213Z,-5.48
2019-01-29T07:04:31.472Z,-5.47
2019-01-29T07:08:32.783Z,-5.47
2019-01-29T07:12:34.104Z,-5.45
2019-01-29T07:16:57.961Z,-5.46
2019-01-29T07:20:59.234Z,-5.45
2019-01-29T07:25:04.639Z,-5.46
2019-01-29T07:29:06.096Z,-5.43
2019-01-29T07:33:07.475Z,-5.44
2019-01-29T07:37:08.854Z,-5.42
2019-01-29T07:41:10.188Z,-5.41
2019-01-29T07:45:13.185Z,-5.43
2019-01-29T07:49:14.759Z,-5.43
2019-01-29T07:53:16.041Z,-5.44
2019-01-29T07:57:17.455Z,-5.43
2019-01-29T08:01:18.718Z,-5.41
2019-01-29T08:05:21.297Z,-5.42
2019-01-29T08:09:22.719Z,-5.42
2019-01-29T08:13:26.259Z,-5.42
2019-01-29T08:17:27.531Z,-5.42
2019-01-29T08:21:28.904Z,-5.39
2019-01-29T08:25:30.228Z,-5.40
2019-01-29T08:29:31.550Z,-5.40
2019-01-29T08:33:32.866Z,-5.41
2019-01-29T08:37:35.639Z,-5.41
2019-01-29T08:41:36.981Z,-5.42
2019-01-29T08:45:38.483Z,-5.43
2019-01-29T08:49:39.899Z,-5.40
2019-01-29T08:53:41.828Z,-5.34
2019-01-29T08:57:42.958Z,-5.29
2019-01-29T09:01:44.403Z,-5.27
2019-01-29T09:05:45.843Z,-5.17
2019-01-29T09:09:47.225Z,-5.19
2019-01-29T09:13:48.524Z,-5.18
2019-01-29T09:17:50.026Z,-5.16
2019-01-29T09:22:11.493Z,-5.12
2019-01-29T09:26:12.949Z,-5.14
2019-01-29T09:30:17.319Z,-5.06
2019-01-29T09:34:18.695Z,-4.96
2019-01-29T09:38:20.079Z,-4.92
2019-01-29T09:42:21.703Z,-4.95
2019-01-29T09:46:23.564Z,-4.79
2019-01-29T09:50:25.058Z,-4.86
2019-01-29T09:54:26.363Z,-4.85
2019-01-29T09:58:27.949Z,-5.00
2019-01-29T10:02:29.155Z,-5.02
2019-01-29T10:06:32.026Z,-4.96
2019-01-29T10:10:33.205Z,-4.90
2019-01-29T10:14:34.535Z,-4.91
2019-01-29T10:18:35.732Z,-4.91
2019-01-29T10:22:36.925Z,-4.79
2019-01-29T10:26:38.245Z,-4.83
2019-01-29T10:30:39.761Z,-4.83
2019-01-29T10:34:41.073Z,-4.75
2019-01-29T10:38:42.334Z,-4.70
2019-01-29T10:42:43.832Z,-4.68
2019-01-29T10:46:45.131Z,-4.66
2019-01-29T10:50:46.572Z,-4.58
2019-01-29T10:54:48.019Z,-4.56
2019-01-29T10:58:49.311Z,-4.57
2019-01-29T11:02:50.952Z,-4.55
2019-01-29T11:06:52.133Z,-4.46
2019-01-29T11:10:53.357Z,-4.40
2019-01-29T11:14:54.608Z,-4.37
2019-01-29T11:19:03.127Z,-4.40
2019-01-29T11:22:58.966Z,-4.43
2019-01-29T11:27:00.296Z,-4.42
2019-01-29T11:31:01.667Z,-4.38
2019-01-29T11:35:04.002Z,-4.35
2019-01-29T11:39:06.766Z,-4.39
2019-01-29T11:43:08.748Z,-4.34
2019-01-29T11:47:10.092Z,-4.35
2019-01-29T11:51:11.401Z,-4.32
2019-01-29T11:55:12.922Z,-4.26
2019-01-29T11:59:14.371Z,-4.19
2019-01-29T12:03:16.727Z,-4.19
2019-01-29T12:07:29.312Z,-4.14
2019-01-29T12:11:30.590Z,-4.15
2019-01-29T12:15:31.887Z,-4.15
2019-01-29T12:19:33.273Z,-4.16
2019-01-29T12:23:37.566Z,-4.15
2019-01-29T12:27:38.716Z,-4.18
2019-01-29T12:31:41.813Z,-4.27
2019-01-29T12:35:44.102Z,-4.25
2019-01-29T12:39:45.464Z,-4.25
2019-01-29T12:43:46.883Z,-4.21
2019-01-29T12:47:48.409Z,-4.16
2019-01-29T12:52:07.935Z,-4.17
2019-01-29T12:56:11.487Z,-4.19
2019-01-29T13:00:15.698Z,-4.25
2019-01-29T13:04:18.012Z,-4.26
2019-01-29T13:08:20.873Z,-4.30
2019-01-29T13:12:22.292Z,-4.36
2019-01-29T13:16:24.832Z,-4.40
2019-01-29T13:20:26.539Z,-4.39
2019-01-29T13:24:27.782Z,-4.43
2019-01-29T13:28:29.107Z,-4.42
2019-01-29T13:32:33.786Z,-4.50
2019-01-29T13:36:36.990Z,-4.55
2019-01-29T13:40:38.860Z,-4.61
2019-01-29T13:44:42.150Z,-4.66
2019-01-29T13:48:45.344Z,-4.66
2019-01-29T13:52:47.012Z,-4.70
2019-01-29T13:56:48.231Z,-4.73
2019-01-29T14:00:50.138Z,-4.74
2019-01-29T14:04:51.836Z,-4.77
2019-01-29T14:08:53.698Z,-4.79
2019-01-29T14:12:56.056Z,-4.80
2019-01-29T14:16:57.889Z,-4.80
2019-01-29T14:21:00.219Z,-4.83
2019-01-29T14:25:01.475Z,-4.85
2019-01-29T14:29:03.234Z,-4.88
2019-01-29T14:33:04.620Z,-4.91
2019-01-29T14:37:05.987Z,-4.93
2019-01-29T14:41:07.751Z,-4.95
2019-01-29T14:45:14.535Z,-4.96
2019-01-29T14:49:16.119Z,-4.97
2019-01-29T14:53:17.462Z,-4.97
2019-01-29T14:57:18.788Z,-4.98
2019-01-29T15:01:20.088Z,-4.97
2019-01-29T15:05:21.444Z,-4.96
2019-01-29T15:09:22.759Z,-4.96
2019-01-29T15:13:24.168Z,-4.98
2019-01-29T15:17:45.393Z,-4.99
2019-01-29T15:21:48.704Z,-4.97
2019-01-29T15:25:50.370Z,-5.01
2019-01-29T15:29:54.088Z,-5.04
2019-01-29T15:33:59.715Z,-5.05
2019-01-29T15:38:01.185Z,-5.05
2019-01-29T15:42:06.402Z,-5.07
2019-01-29T15:46:14.799Z,-5.07
2019-01-29T15:50:21.566Z,-5.06
2019-01-29T15:54:24.099Z,-5.06
2019-01-29T15:58:27.105Z,-5.06
2019-01-29T16:02:30.252Z,-5.08
2019-01-29T16:06:31.415Z,-5.08
2019-01-29T16:10:39.703Z,-5.07
2019-01-29T16:14:40.112Z,-5.07
2019-01-29T16:18:41.416Z,-5.06
2019-01-29T16:22:42.706Z,-5.06
2019-01-29T16:26:44.112Z,-5.06
2019-01-29T16:30:45.551Z,-5.05
2019-01-29T16:34:46.951Z,-5.06
2019-01-29T16:38:48.344Z,-5.04
2019-01-29T16:42:51.241Z,-5.04
2019-01-29T16:48:17.994Z,-4.98
2019-01-29T16:52:21.296Z,-5.03
2019-01-29T16:56:23.547Z,-5.04
2019-01-29T17:00:30.161Z,-5.03
2019-01-29T17:04:33.300Z,-5.03
2019-01-29T17:08:35.272Z,-5.05
2019-01-29T17:14:01.660Z,-4.99
2019-01-29T17:18:04.523Z,-5.05
2019-01-29T17:22:07.227Z,-5.04
2019-01-29T17:26:09.929Z,-5.02
2019-01-29T17:30:17.256Z,-5.03
2019-01-29T17:34:19.751Z,-5.02
2019-01-29T17:38:22.225Z,-5.00
2019-01-29T17:42:24.650Z,-5.01
2019-01-29T17:46:27.207Z,-5.02
2019-01-29T17:50:33.998Z,-5.02
2019-01-29T17:54:36.356Z,-5.03
2019-01-29T17:58:38.694Z,-5.01
2019-01-29T18:02:41.149Z,-5.02
2019-01-29T18:06:43.525Z,-5.04
2019-01-29T18:10:46.183Z,-5.05
2019-01-29T18:14:48.507Z,-5.07
2019-01-29T18:18:52.036Z,-5.07
2019-01-29T18:22:55.032Z,-5.06
2019-01-29T18:26:57.678Z,-5.07
2019-01-29T18:31:01.307Z,-5.08
2019-01-29T18:35:03.798Z,-5.10
2019-01-29T18:39:08.231Z,-5.10
2019-01-29T18:43:11.867Z,-5.14
2019-01-29T18:47:14.605Z,-5.18
2019-01-29T18:51:20.539Z,-5.23
2019-01-29T18:55:22.988Z,-5.27
2019-01-29T18:59:25.385Z,-5.35
2019-01-29T19:03:27.779Z,-5.42
2019-01-29T19:07:30.386Z,-5.46
2019-01-29T19:11:33.064Z,-5.51
2019-01-29T19:15:35.619Z,-5.52
2019-01-29T19:19:38.085Z,-5.55
2019-01-29T19:23:40.593Z,-5.55
2019-01-29T19:27:45.213Z,-5.57
2019-01-29T19:31:47.625Z,-5.62
2019-01-29T19:35:50.263Z,-5.62
2019-01-29T19:39:52.799Z,-5.64
2019-01-29T19:43:55.339Z,-5.66
2019-01-29T19:47:59.044Z,-5.69
2019-01-29T19:52:01.545Z,-5.69
2019-01-29T19:56:04.044Z,-5.70
2019-01-29T20:00:08.734Z,-5.73
2019-01-29T20:04:11.398Z,-5.73
2019-01-29T20:08:13.934Z,-5.74
2019-01-29T20:12:16.469Z,-5.75
2019-01-29T20:16:19.006Z,-5.77
2019-01-29T20:20:30.303Z,-5.76
2019-01-29T20:24:33.482Z,-5.77
2019-01-29T20:28:42.191Z,-5.78
2019-01-29T20:32:40.412Z,-5.78
2019-01-29T20:36:43.364Z,-5.78
2019-01-29T20:40:46.293Z,-5.79
2019-01-29T20:44:48.857Z,-5.79
2019-01-29T20:48:51.409Z,-5.79
2019-01-29T20:52:54.024Z,-5.81
2019-01-29T20:56:56.441Z,-5.81
2019-01-29T21:00:59.049Z,-5.82
2019-01-29T21:05:01.540Z,-5.83
2019-01-29T21:09:06.578Z,-5.83
2019-01-29T21:13:10.893Z,-5.84
2019-01-29T21:17:13.836Z,-5.84
2019-01-29T21:21:16.412Z,-5.85
2019-01-29T21:25:19.074Z,-5.85
2019-01-29T21:29:21.567Z,-5.84
2019-01-29T21:33:24.504Z,-5.84
2019-01-29T21:37:27.315Z,-5.87
2019-01-29T21:41:30.022Z,-5.88
2019-01-29T21:45:32.636Z,-5.88
2019-01-29T21:49:35.209Z,-5.90
2019-01-29T21:53:37.781Z,-5.90
2019-01-29T21:57:40.612Z,-5.90
2019-01-29T22:01:43.183Z,-5.92
2019-01-29T22:05:45.862Z,-5.93
2019-01-29T22:09:49.918Z,-5.94
2019-01-29T22:13:52.444Z,-5.96
2019-01-29T22:17:54.854Z,-5.96
2019-01-29T22:21:57.442Z,-5.98
2019-01-29T22:25:59.876Z,-5.98
2019-01-29T22:30:02.615Z,-5.98
2019-01-29T22:34:06.634Z,-5.96
2019-01-29T22:38:09.643Z,-5.96
2019-01-29T22:42:12.219Z,-5.94
2019-01-29T22:46:15.014Z,-5.91
2019-01-29T22:50:29.790Z,-5.91
2019-01-29T22:54:32.690Z,-5.92
2019-01-29T22:58:35.423Z,-5.92
2019-01-29T23:02:37.868Z,-5.91
2019-01-29T23:06:52.923Z,-5.93
2019-01-29T23:10:57.312Z,-5.95
2019-01-29T23:14:59.695Z,-5.93
2019-01-29T23:19:02.138Z,-5.97
2019-01-29T23:23:04.688Z,-5.98
2019-01-29T23:27:07.151Z,-5.96
2019-01-29T23:31:09.572Z,-5.93
2019-01-29T23:35:12.183Z,-5.92
2019-01-29T23:39:15.084Z,-5.93
2019-01-29T23:43:17.686Z,-5.98
2019-01-29T23:47:20.194Z,-5.99
2019-01-29T23:51:22.725Z,-6.01
2019-01-29T23:55:25.522Z,-6.02
2019-01-29T23:59:27.886Z,-6.02
